Kahului Airport Kahului US
ICAO: PHOG
IATA:
Category: Medium
Scheduled Services:

Elevation: 54 ft
TransAlt. 18000 ft.

Airport Communications:
MAUI APP/DEP:119.5
ATIS:128.6
MAUI CLNC DEL:120.6
CTAF:118.7
GND:121.9
MAUI RDO:123.6
MAUI TWR:118.7
UNICOM:122.95

PHOG Zoom In..

Runways:

(A) RW 02 length 6995 ft width 150 ft
ILS 110.10 / hdg 24

(B) RW 05 length 4990 ft width 150 ft
---- / hdg 54

(C) RW 20 length 6995 ft width 150 ft
---- / hdg 204

(D) RW 23 length 4990 ft width 150 ft
---- / hdg 234

Location; PHOG
Day. 17 / Time. 06.54 Zulu
* Altimeter: 30.01
* Temperature: 26° c. 78.8°f.
* Wind from: 050° Speed 10 kn with Gusts up to 22 kn.
Dewpoint: 22° c.
Visibility: 10 Statute Miles.
Clouds: Few 4800 ft.

PHOG 170654Z 05010G22KT 10SM FEW048 26/22 A3001 RMK AO2 SLP167 T02610222


Wind From 050°
Speed 10 kn.

 
 
jpsmedia.com for Web Design worldairports.se 2018   terms of use